| time (UTC) | temp F | wind direction | speed knots | gust knots | rain 1hr in | rain 24hr in | rain mn in | humidity % | barometer mb |
| 20260906110101 | 68 | 213 | 0.9 | 3.5 | 0.00 | 0.07 | 0.00 | 93 | 1014.6 |
| 20260906104556 | 69 | 155 | 0.9 | 2.6 | 0.00 | 0.07 | 0.00 | 93 | 1014.4 |
| 20260906103101 | 69 | 147 | 0.0 | 1.7 | 0.00 | 0.07 | 0.00 | 93 | 1014.3 |
| 20260906101602 | 69 | 148 | 0.9 | 3.5 | 0.00 | 0.07 | 0.00 | 93 | 1014.0 |
| 20260906100059 | 69 | 167 | 0.0 | 3.5 | 0.00 | 0.07 | 0.00 | 92 | 1014.1 |
| 20260906094557 | 69 | 170 | 1.7 | 3.5 | 0.00 | 0.07 | 0.00 | 93 | 1013.9 |
| 20260906093105 | 69 | 0 | 0.9 | 3.5 | 0.00 | 0.07 | 0.00 | 93 | 1013.6 |
| 20260906091601 | 69 | 136 | 0.9 | 1.7 | 0.00 | 0.07 | 0.00 | 93 | 1013.6 |
| 20260906084556 | 69 | 146 | 0.9 | 1.7 | 0.00 | 0.07 | 0.00 | 93 | 1013.6 |
| 20260906083102 | 69 | 126 | 0.0 | 0.9 | 0.00 | 0.07 | 0.00 | 93 | 1013.7 |
| 20260906081603 | 69 | 0 | 0.0 | 0.0 | 0.00 | 0.07 | 0.00 | 93 | 1013.7 |
| 20260906074600 | 69 | 79 | 0.0 | 1.7 | 0.00 | 0.07 | 0.00 | 93 | 1013.6 |
| 20260906073055 | 69 | 82 | 0.9 | 1.7 | 0.00 | 0.07 | 0.00 | 93 | 1013.5 |
| 20260906071601 | 69 | 143 | 0.0 | 0.9 | 0.00 | 0.07 | 0.00 | 93 | 1013.4 |
| 20260906064559 | 70 | 157 | 1.7 | 2.6 | 0.00 | 0.07 | 0.00 | 93 | 1013.7 |
| 20260906063056 | 70 | 139 | 0.0 | 0.9 | 0.00 | 0.07 | 0.00 | 93 | 1014.0 |
| 20260906061601 | 70 | 207 | 0.0 | 0.9 | 0.00 | 0.07 | 0.00 | 93 | 1014.1 |
| 20260906060116 | 69 | 0 | 0.0 | 0.9 | 0.00 | 0.07 | 0.00 | 93 | 1014.3 |
| 20260906054601 | 69 | 0 | 0.0 | 0.9 | 0.00 | 0.07 | 0.00 | 93 | 1014.3 |
| 20260906053055 | 69 | 0 | 0.0 | 0.9 | 0.00 | 0.07 | 0.00 | 93 | 1014.3 |
| 20260906051606 | 69 | 0 | 0.0 | 0.9 | 0.00 | 0.07 | 0.00 | 93 | 1014.0 |
| 20260906050059 | 69 | 0 | 0.0 | 0.9 | 0.00 | 0.07 | 0.00 | 93 | 1014.3 |
| 20260906044556 | 69 | 229 | 0.0 | 0.9 | 0.00 | 0.07 | 0.00 | 93 | 1014.1 |
| 20260906043106 | 69 | 231 | 0.9 | 1.7 | 0.00 | 0.07 | 0.00 | 93 | 1014.1 |
| 20260906041602 | 69 | 204 | 0.0 | 0.9 | 0.00 | 0.07 | 0.00 | 93 | 1014.0 |
| 20260906040103 | 70 | 0 | 0.0 | 0.9 | 0.00 | 0.07 | 0.00 | 93 | 1014.2 |
| 20260906034603 | 70 | 205 | 0.0 | 0.9 | 0.00 | 0.07 | 0.07 | 92 | 1014.6 |
| 20260906033104 | 70 | 183 | 0.0 | 1.7 | 0.00 | 0.07 | 0.07 | 93 | 1014.7 |
| 20260906031603 | 70 | 0 | 0.0 | 0.0 | 0.00 | 0.07 | 0.07 | 92 | 1014.8 |
| 20260906030101 | 70 | 0 | 0.0 | 0.0 | 0.00 | 0.07 | 0.07 | 92 | 1014.8 |
| 20260906024555 | 70 | 0 | 0.0 | 0.0 | 0.00 | 0.07 | 0.07 | 92 | 1014.6 |
| 20260906023108 | 71 | 0 | 0.0 | 0.0 | 0.00 | 0.07 | 0.07 | 91 | 1014.7 |
| 20260906021559 | 71 | 0 | 0.0 | 0.0 | 0.00 | 0.07 | 0.07 | 91 | 1014.7 |
| 20260906014604 | 71 | 0 | 0.0 | 0.0 | 0.00 | 0.07 | 0.07 | 89 | 1014.6 |
| 20260906013104 | 72 | 0 | 0.0 | 0.0 | 0.00 | 0.07 | 0.07 | 89 | 1014.3 |
| 20260906011607 | 72 | 0 | 0.0 | 0.0 | 0.00 | 0.07 | 0.07 | 88 | 1014.0 |
| 20260906004558 | 74 | 0 | 0.0 | 0.0 | 0.00 | 0.07 | 0.07 | 85 | 1013.6 |
| 20260906003101 | 74 | 0 | 0.0 | 0.0 | 0.00 | 0.07 | 0.07 | 83 | 1013.5 |
| 20260906001559 | 75 | 0 | 0.0 | 0.0 | 0.00 | 0.07 | 0.07 | 80 | 1013.6 |
| 20260906000057 | 76 | 0 | 0.0 | 0.0 | 0.00 | 0.07 | 0.07 | 78 | 1013.4 |
| 20260905234602 | 78 | 0 | 0.0 | 0.9 | 0.00 | 0.07 | 0.07 | 76 | 1013.3 |
| 20260905233117 | 80 | 0 | 0.0 | 0.9 | 0.00 | 0.07 | 0.07 | 73 | 1013.4 |
| 20260905231559 | 81 | 183 | 0.9 | 2.6 | 0.00 | 0.07 | 0.07 | 68 | 1013.4 |
| 20260905230104 | 82 | 0 | 0.9 | 3.5 | 0.00 | 0.07 | 0.07 | 66 | 1013.4 |
| 20260905224604 | 83 | 161 | 1.7 | 4.3 | 0.00 | 0.07 | 0.07 | 63 | 1013.4 |
| 20260905223101 | 85 | 143 | 2.6 | 7.8 | 0.00 | 0.07 | 0.07 | 59 | 1013.2 |
| 20260905221559 | 86 | 96 | 0.9 | 4.3 | 0.00 | 0.07 | 0.07 | 60 | 1013.1 |
| 20260905220106 | 89 | 98 | 0.9 | 1.7 | 0.00 | 0.07 | 0.07 | 55 | 1012.7 |
| 20260905214559 | 88 | 0 | 0.9 | 1.7 | 0.00 | 0.07 | 0.07 | 55 | 1012.5 |
| 20260905213103 | 88 | 127 | 0.9 | 4.3 | 0.00 | 0.07 | 0.07 | 55 | 1012.4 |
| 20260905211611 | 88 | 136 | 0.9 | 2.6 | 0.00 | 0.07 | 0.07 | 54 | 1012.3 |
| 20260905210112 | 86 | 115 | 1.7 | 5.2 | 0.00 | 0.07 | 0.07 | 60 | 1012.3 |
| 20260905204600 | 86 | 213 | 3.5 | 6.1 | 0.00 | 0.07 | 0.07 | 56 | 1012.3 |
| 20260905203058 | 86 | 195 | 3.5 | 7.8 | 0.00 | 0.07 | 0.07 | 56 | 1012.3 |
| 20260905201603 | 86 | 189 | 2.6 | 7.8 | 0.00 | 0.07 | 0.07 | 56 | 1012.3 |
| 20260905200104 | 86 | 123 | 1.7 | 5.2 | 0.00 | 0.07 | 0.07 | 59 | 1012.3 |
| 20260905194558 | 85 | 170 | 2.6 | 6.1 | 0.00 | 0.07 | 0.07 | 57 | 1012.5 |
| 20260905193104 | 85 | 205 | 2.6 | 7.8 | 0.00 | 0.07 | 0.07 | 58 | 1012.9 |
| 20260905191602 | 85 | 182 | 4.3 | 7.8 | 0.00 | 0.07 | 0.07 | 61 | 1012.9 |
| 20260905190108 | 85 | 212 | 1.7 | 5.2 | 0.00 | 0.07 | 0.07 | 63 | 1013.2 |
| 20260905184607 | 84 | 89 | 1.7 | 3.5 | 0.00 | 0.07 | 0.07 | 67 | 1013.5 |
| 20260905183119 | 84 | 155 | 0.9 | 3.5 | 0.00 | 0.07 | 0.07 | 68 | 1013.6 |
| 20260905181603 | 83 | 0 | 0.9 | 2.6 | 0.00 | 0.07 | 0.07 | 71 | 1014.0 |
| 20260905174555 | 81 | 187 | 0.9 | 4.3 | 0.00 | 0.07 | 0.07 | 75 | 1014.8 |
| 20260905173106 | 79 | 70 | 0.0 | 2.6 | 0.00 | 0.07 | 0.07 | 77 | 1015.1 |
| 20260905171602 | 78 | 165 | 0.0 | 1.7 | 0.00 | 0.07 | 0.07 | 80 | 1015.2 |
| 20260905164602 | 77 | 32 | 1.7 | 4.3 | 0.00 | 0.07 | 0.07 | 82 | 1015.2 |
| 20260905163108 | 76 | 110 | 0.9 | 7.0 | 0.00 | 0.07 | 0.07 | 82 | 1015.2 |
| 20260905161604 | 76 | 66 | 0.0 | 6.1 | 0.00 | 0.07 | 0.07 | 83 | 1014.9 |
| 20260905160101 | 76 | 15 | 1.7 | 3.5 | 0.00 | 0.07 | 0.07 | 82 | 1015.3 |
| 20260905154607 | 76 | 51 | 0.9 | 2.6 | 0.00 | 0.07 | 0.07 | 83 | 1015.9 |
| 20260905153106 | 76 | 84 | 0.0 | 0.9 | 0.00 | 0.07 | 0.07 | 84 | 1016.4 |
| 20260905151611 | 74 | 334 | 0.9 | 2.6 | 0.06 | 0.07 | 0.07 | 86 | 1016.7 |
| 20260905144603 | 71 | 344 | 0.9 | 2.6 | 0.07 | 0.07 | 0.07 | 92 | 1016.9 |
| 20260905143103 | 70 | 252 | 0.0 | 2.6 | 0.07 | 0.07 | 0.07 | 91 | 1016.6 |
| 20260905141619 | 71 | 240 | 0.9 | 5.2 | 0.01 | 0.01 | 0.01 | 87 | 1016.7 |
| 20260905140107 | 71 | 130 | 0.0 | 11.3 | 0.00 | 0.00 | 0.00 | 89 | 1016.6 |
| 20260905134554 | 70 | 162 | 4.3 | 9.6 | 0.00 | 0.00 | 0.00 | 91 | 1016.8 |
| 20260905133101 | 71 | 172 | 0.9 | 1.7 | 0.00 | 0.00 | 0.00 | 91 | 1015.6 |
| 20260905131615 | 71 | 0 | 0.0 | 0.9 | 0.00 | 0.00 | 0.00 | 91 | 1015.7 |
| 20260905130100 | 70 | 0 | 0.0 | 0.0 | 0.00 | 0.00 | 0.00 | 93 | 1015.6 |
| 20260905124602 | 69 | 0 | 0.0 | 2.6 | 0.00 | 0.00 | 0.00 | 93 | 1015.5 |
| 20260905123056 | 69 | 193 | 0.9 | 3.5 | 0.00 | 0.00 | 0.00 | 93 | 1015.6 |
| 20260905121603 | 69 | 187 | 1.7 | 2.6 | 0.00 | 0.00 | 0.00 | 93 | 1015.5 |
| 20260905120100 | 68 | 154 | 0.9 | 1.7 | 0.00 | 0.00 | 0.00 | 93 | 1015.4 |
| 20260905114557 | 68 | 0 | 0.0 | 0.9 | 0.00 | 0.00 | 0.00 | 93 | 1015.4 |
| 20260905113056 | 68 | 193 | 1.7 | 3.5 | 0.00 | 0.00 | 0.00 | 93 | 1015.3 |
| 20260905111600 | 69 | 178 | 0.9 | 2.6 | 0.00 | 0.00 | 0.00 | 93 | 1015.2 |